createdAt,value
2023-01-29T00:01:42.245Z,98960.00
2023-01-29T00:05:43.457Z,98968.00
2023-01-29T00:09:44.634Z,98967.00
2023-01-29T00:13:46.696Z,98964.00
2023-01-29T00:17:47.687Z,98971.00
2023-01-29T00:21:48.723Z,98975.00
2023-01-29T00:25:49.902Z,98973.00
2023-01-29T00:29:53.068Z,98970.00
2023-01-29T00:33:54.270Z,98959.00
2023-01-29T00:37:56.285Z,98965.00
2023-01-29T00:42:15.581Z,98973.00
2023-01-29T00:46:16.635Z,98963.00
2023-01-29T00:50:18.518Z,98964.00
2023-01-29T00:54:19.739Z,98958.00
2023-01-29T00:58:21.787Z,98944.00
2023-01-29T01:02:41.907Z,98946.00
2023-01-29T01:06:43.049Z,98940.00
2023-01-29T01:10:44.523Z,98933.00
2023-01-29T01:14:45.767Z,98930.00
2023-01-29T01:18:46.859Z,98931.00
2023-01-29T01:22:48.078Z,98930.00
2023-01-29T01:26:49.282Z,98914.00
2023-01-29T01:30:50.338Z,98902.00
2023-01-29T01:34:52.394Z,98907.00
2023-01-29T01:38:54.390Z,98897.00
2023-01-29T01:43:00.269Z,98892.00
2023-01-29T01:47:01.542Z,98896.00
2023-01-29T01:51:05.955Z,98891.00
2023-01-29T01:55:10.699Z,98894.00
2023-01-29T01:59:15.686Z,98896.00
2023-01-29T02:03:37.772Z,98890.00
2023-01-29T02:08:06.249Z,98894.00
2023-01-29T02:12:10.541Z,98889.00
2023-01-29T02:16:11.564Z,98898.00
2023-01-29T02:20:16.797Z,98905.00
2023-01-29T02:24:48.108Z,98914.00
2023-01-29T02:29:24.559Z,98930.00
2023-01-29T02:34:01.414Z,98799.00
2023-01-29T02:38:24.354Z,98948.00
2023-01-29T02:42:35.279Z,98933.00
2023-01-29T02:46:42.840Z,98934.00
2023-01-29T02:50:58.944Z,98932.00
2023-01-29T02:55:16.027Z,98916.00
2023-01-29T02:59:20.827Z,98901.00
2023-01-29T03:03:28.790Z,98901.00
2023-01-29T03:07:44.112Z,98909.00
2023-01-29T03:11:48.938Z,98918.00
2023-01-29T03:15:58.520Z,98908.00
2023-01-29T03:20:01.252Z,98927.00
2023-01-29T03:24:21.788Z,98915.00
2023-01-29T03:28:42.161Z,98910.00
2023-01-29T03:32:45.590Z,98902.00
2023-01-29T03:36:54.962Z,98901.00
2023-01-29T03:40:59.803Z,98899.00
2023-01-29T03:45:21.546Z,98899.00
2023-01-29T03:49:44.678Z,98913.00
2023-01-29T03:54:04.563Z,98787.00
2023-01-29T03:58:09.315Z,98929.00
2023-01-29T04:02:18.831Z,98923.00
2023-01-29T04:06:26.513Z,98908.00
2023-01-29T04:10:29.258Z,98893.00
2023-01-29T04:14:32.041Z,98892.00
2023-01-29T04:18:35.032Z,98892.00
2023-01-29T04:22:38.747Z,98900.00
2023-01-29T04:27:15.509Z,98914.00
2023-01-29T04:31:19.373Z,98909.00
2023-01-29T04:35:35.944Z,98923.00
2023-01-29T04:39:58.988Z,98926.00
2023-01-29T04:44:03.891Z,98912.00
2023-01-29T04:48:08.617Z,98917.00
2023-01-29T04:52:25.623Z,98917.00
2023-01-29T04:56:36.169Z,98916.00
2023-01-29T05:00:40.915Z,98900.00
2023-01-29T05:04:44.051Z,98905.00
2023-01-29T05:08:46.961Z,98888.00
2023-01-29T05:12:58.142Z,98879.00
2023-01-29T05:17:02.885Z,98867.00
2023-01-29T05:21:06.952Z,98867.00
2023-01-29T05:25:26.582Z,98878.00
2023-01-29T05:29:27.949Z,98889.00
2023-01-29T05:33:30.856Z,98884.00
2023-01-29T05:37:31.910Z,98864.00
2023-01-29T05:41:32.899Z,98610.00
2023-01-29T05:45:34.019Z,98900.00
2023-01-29T05:49:35.724Z,98912.00
2023-01-29T05:53:37.770Z,98911.00
2023-01-29T05:57:40.245Z,98919.00
2023-01-29T06:01:43.286Z,98906.00
2023-01-29T06:05:44.289Z,98908.00
2023-01-29T06:09:45.375Z,98901.00
2023-01-29T06:13:47.129Z,98884.00
2023-01-29T06:17:48.236Z,98862.00
2023-01-29T06:21:49.246Z,98864.00
2023-01-29T06:25:50.345Z,98855.00
2023-01-29T06:29:53.648Z,98855.00
2023-01-29T06:33:54.851Z,98868.00
2023-01-29T06:37:56.314Z,98861.00
2023-01-29T06:41:57.406Z,98879.00
2023-01-29T06:45:58.555Z,98876.00
2023-01-29T06:50:00.141Z,98884.00
2023-01-29T06:54:01.082Z,98890.00
2023-01-29T06:58:11.299Z,98881.00
2023-01-29T07:02:12.847Z,98892.00
2023-01-29T07:06:13.870Z,98904.00
2023-01-29T07:10:15.473Z,98909.00
2023-01-29T07:14:17.012Z,98925.00
2023-01-29T07:18:18.108Z,98915.00
2023-01-29T07:22:19.316Z,98920.00
2023-01-29T07:26:20.650Z,98893.00
2023-01-29T07:30:21.835Z,98896.00
2023-01-29T07:34:22.988Z,98883.00
2023-01-29T07:38:24.097Z,98883.00
2023-01-29T07:42:25.205Z,98874.00
2023-01-29T07:46:26.157Z,98894.00
2023-01-29T07:50:27.653Z,98919.00
2023-01-29T07:54:28.816Z,98907.00
2023-01-29T07:58:30.014Z,98904.00
2023-01-29T08:02:31.371Z,98920.00
2023-01-29T08:06:32.472Z,98928.00
2023-01-29T08:10:35.093Z,98933.00
2023-01-29T08:14:36.327Z,98910.00
2023-01-29T08:18:38.090Z,98901.00
2023-01-29T08:22:39.226Z,98901.00
2023-01-29T08:26:40.456Z,98902.00
2023-01-29T08:30:43.393Z,98912.00
2023-01-29T08:34:45.742Z,98916.00
2023-01-29T08:38:46.921Z,98911.00
2023-01-29T08:42:47.992Z,98914.00
2023-01-29T08:46:48.990Z,98922.00
2023-01-29T08:50:50.615Z,98937.00
2023-01-29T08:54:51.770Z,98926.00
2023-01-29T08:58:52.756Z,98929.00
2023-01-29T09:02:53.935Z,98920.00
2023-01-29T09:06:55.059Z,98945.00
2023-01-29T09:10:59.029Z,98949.00
2023-01-29T09:15:00.050Z,98941.00
2023-01-29T09:19:01.221Z,98945.00
2023-01-29T09:23:06.727Z,98965.00
2023-01-29T09:27:10.354Z,98964.00
2023-01-29T09:31:11.535Z,98970.00
2023-01-29T09:35:12.624Z,98957.00
2023-01-29T09:39:14.087Z,98959.00
2023-01-29T09:43:22.011Z,98962.00
2023-01-29T09:47:26.437Z,98958.00
2023-01-29T09:51:34.359Z,98822.00
2023-01-29T09:55:39.170Z,98971.00
2023-01-29T09:59:40.215Z,98944.00
2023-01-29T10:03:54.277Z,98925.00
2023-01-29T10:08:04.645Z,98923.00
2023-01-29T10:12:41.040Z,98909.00
2023-01-29T10:17:03.826Z,98903.00
2023-01-29T10:21:08.774Z,98888.00
2023-01-29T10:25:13.085Z,98881.00
2023-01-29T10:29:17.914Z,98898.00
2023-01-29T10:33:22.869Z,98885.00
2023-01-29T10:37:41.733Z,98875.00
2023-01-29T10:42:15.416Z,98870.00
2023-01-29T10:46:38.402Z,98876.00
2023-01-29T10:50:43.381Z,98858.00
2023-01-29T10:59:00.382Z,98842.00
2023-01-29T11:03:27.529Z,98835.00
2023-01-29T11:07:22.515Z,98832.00
2023-01-29T11:11:30.445Z,98829.00
2023-01-29T11:15:34.206Z,98827.00
2023-01-29T11:19:41.756Z,98830.00
2023-01-29T11:23:43.324Z,98826.00
2023-01-29T11:28:01.814Z,98823.00
2023-01-29T11:32:15.418Z,98809.00
2023-01-29T11:36:37.824Z,98793.00
2023-01-29T11:40:40.214Z,98800.00
2023-01-29T11:44:42.470Z,98774.00
2023-01-29T11:48:50.919Z,98780.00
2023-01-29T11:52:52.558Z,98770.00
2023-01-29T11:56:54.932Z,98770.00
2023-01-29T12:00:58.002Z,98762.00
2023-01-29T12:05:08.869Z,98755.00
2023-01-29T12:09:15.520Z,98740.00
2023-01-29T12:13:27.709Z,98734.00
2023-01-29T12:17:32.313Z,98738.00
2023-01-29T12:21:37.132Z,98721.00
2023-01-29T12:25:41.970Z,98721.00
2023-01-29T12:29:52.905Z,98709.00
2023-01-29T12:34:00.550Z,98706.00
2023-01-29T12:38:05.627Z,98689.00
2023-01-29T12:42:21.882Z,98690.00
2023-01-29T12:46:29.655Z,98684.00
2023-01-29T12:50:35.765Z,98676.00
2023-01-29T12:54:49.396Z,98663.00
2023-01-29T12:58:53.142Z,98667.00
2023-01-29T13:03:17.923Z,98649.00
2023-01-29T13:07:23.890Z,98658.00
2023-01-29T13:12:00.655Z,98651.00
2023-01-29T13:16:05.831Z,98655.00
2023-01-29T13:20:16.986Z,98654.00
2023-01-29T13:24:21.624Z,98645.00
2023-01-29T13:28:25.978Z,98647.00
2023-01-29T13:32:30.026Z,98642.00
2023-01-29T13:36:31.700Z,98649.00
2023-01-29T13:40:35.354Z,98657.00
2023-01-29T13:44:38.988Z,98652.00
2023-01-29T13:48:46.127Z,98648.00
2023-01-29T13:52:56.431Z,98644.00
2023-01-29T13:56:59.802Z,98639.00
2023-01-29T14:01:01.095Z,98642.00
2023-01-29T14:09:31.166Z,98632.00
2023-01-29T14:13:35.146Z,98625.00
2023-01-29T14:17:37.491Z,98612.00
2023-01-29T14:21:38.992Z,98606.00
2023-01-29T14:25:40.640Z,98607.00
2023-01-29T14:29:42.007Z,98602.00
2023-01-29T14:33:43.603Z,98596.00
2023-01-29T14:37:49.692Z,98596.00
2023-01-29T14:41:51.867Z,98586.00
2023-01-29T14:45:52.892Z,98587.00
2023-01-29T14:49:57.293Z,98581.00
2023-01-29T14:54:20.207Z,98587.00
2023-01-29T14:58:28.443Z,98580.00
2023-01-29T15:02:39.142Z,98581.00
2023-01-29T15:06:50.015Z,98570.00
2023-01-29T15:10:55.837Z,98574.00
2023-01-29T15:15:09.603Z,98568.00
2023-01-29T15:19:39.477Z,98554.00
2023-01-29T15:23:40.746Z,98548.00
2023-01-29T15:27:43.599Z,98537.00
2023-01-29T15:31:46.986Z,98528.00
2023-01-29T15:35:49.855Z,98527.00
2023-01-29T15:39:52.973Z,98522.00
2023-01-29T15:43:57.042Z,98516.00
2023-01-29T15:48:05.835Z,98519.00
2023-01-29T15:52:28.662Z,98344.00
2023-01-29T15:56:33.445Z,98521.00
2023-01-29T16:00:35.341Z,98358.00
2023-01-29T16:04:36.494Z,98529.00
2023-01-29T16:08:39.569Z,98538.00
2023-01-29T16:12:41.159Z,98548.00
2023-01-29T16:16:45.218Z,98557.00
2023-01-29T16:20:56.944Z,98569.00
2023-01-29T16:25:04.178Z,98579.00
2023-01-29T16:29:07.426Z,98573.00
2023-01-29T16:33:15.237Z,98580.00
2023-01-29T16:37:23.272Z,98573.00
2023-01-29T16:41:30.787Z,98592.00
2023-01-29T16:45:31.800Z,98580.00
2023-01-29T16:49:39.475Z,98577.00
2023-01-29T16:53:44.352Z,98581.00
2023-01-29T16:57:49.525Z,98579.00
2023-01-29T17:01:51.286Z,98581.00
2023-01-29T17:05:53.080Z,98583.00
2023-01-29T17:09:57.967Z,98588.00
2023-01-29T17:13:59.584Z,98584.00
2023-01-29T17:18:02.812Z,98587.00
2023-01-29T17:22:05.811Z,98591.00
2023-01-29T17:26:09.415Z,98595.00
2023-01-29T17:30:15.551Z,98602.00
2023-01-29T17:34:17.275Z,98598.00
2023-01-29T17:38:25.921Z,98599.00
2023-01-29T17:42:22.691Z,98587.00
2023-01-29T17:46:23.835Z,98581.00
2023-01-29T17:50:27.773Z,98588.00
2023-01-29T17:54:29.610Z,98579.00
2023-01-29T17:58:31.626Z,98571.00
2023-01-29T18:02:33.341Z,98569.00
2023-01-29T18:06:35.288Z,98557.00
2023-01-29T18:10:36.717Z,98574.00
2023-01-29T18:14:39.251Z,98545.00
2023-01-29T18:18:40.648Z,98549.00
2023-01-29T18:22:42.173Z,98545.00
2023-01-29T18:26:43.190Z,98539.00
2023-01-29T18:30:46.484Z,98541.00
2023-01-29T18:34:47.466Z,98535.00
2023-01-29T18:38:48.735Z,98530.00
2023-01-29T18:42:49.917Z,98541.00
2023-01-29T18:46:51.434Z,98519.00
2023-01-29T18:50:52.509Z,98504.00
2023-01-29T18:54:54.037Z,98498.00
2023-01-29T18:58:56.104Z,98489.00
2023-01-29T19:02:57.403Z,98491.00
2023-01-29T19:06:58.578Z,98497.00
2023-01-29T19:11:02.441Z,98492.00
2023-01-29T19:15:04.713Z,98481.00
2023-01-29T19:19:06.413Z,98489.00
2023-01-29T19:23:09.125Z,98487.00
2023-01-29T19:27:11.217Z,98481.00
2023-01-29T19:31:13.173Z,98483.00
2023-01-29T19:35:14.867Z,98487.00
2023-01-29T19:39:17.659Z,98488.00
2023-01-29T19:43:18.825Z,98479.00
2023-01-29T19:47:20.554Z,98477.00
2023-01-29T19:51:22.955Z,98478.00
2023-01-29T19:55:24.619Z,98486.00
2023-01-29T19:59:26.341Z,98483.00
2023-01-29T20:03:28.802Z,98472.00
2023-01-29T20:07:30.685Z,98466.00
2023-01-29T20:11:32.456Z,98467.00
2023-01-29T20:15:33.816Z,98450.00
2023-01-29T20:19:35.067Z,98447.00
2023-01-29T20:23:38.391Z,98450.00
2023-01-29T20:27:39.545Z,98445.00
2023-01-29T20:31:41.135Z,98456.00
2023-01-29T20:35:42.404Z,98427.00
2023-01-29T20:39:43.548Z,98432.00
2023-01-29T20:43:46.458Z,98426.00
2023-01-29T20:47:50.326Z,98431.00
2023-01-29T20:51:51.485Z,98421.00
2023-01-29T20:55:52.683Z,98232.00
2023-01-29T20:59:54.338Z,98411.00
2023-01-29T21:03:55.619Z,98405.00
2023-01-29T21:07:56.782Z,98394.00
2023-01-29T21:11:57.857Z,98390.00
2023-01-29T21:15:59.196Z,98382.00
2023-01-29T21:20:00.356Z,98372.00
2023-01-29T21:24:01.621Z,98385.00
2023-01-29T21:28:03.727Z,98361.00
2023-01-29T21:32:04.814Z,98340.00
2023-01-29T21:36:07.365Z,98330.00
2023-01-29T21:40:10.265Z,98318.00
2023-01-29T21:44:12.113Z,98303.00
2023-01-29T21:48:13.415Z,98293.00
2023-01-29T21:52:15.013Z,98284.00
2023-01-29T21:56:18.278Z,98288.00
2023-01-29T22:00:19.691Z,98292.00
2023-01-29T22:04:21.080Z,98297.00
2023-01-29T22:08:22.043Z,98288.00
2023-01-29T22:12:23.273Z,98280.00
2023-01-29T22:16:24.319Z,98269.00
2023-01-29T22:20:27.470Z,98284.00
2023-01-29T22:24:28.533Z,98284.00
2023-01-29T22:28:29.486Z,98281.00
2023-01-29T22:32:32.064Z,98263.00
2023-01-29T22:36:33.070Z,98254.00
2023-01-29T22:40:34.115Z,98245.00
2023-01-29T22:44:35.081Z,98239.00
2023-01-29T22:48:36.489Z,98226.00
2023-01-29T22:52:41.771Z,98228.00
2023-01-29T22:56:42.706Z,98204.00
2023-01-29T23:00:43.814Z,98199.00
2023-01-29T23:04:44.997Z,98186.00
2023-01-29T23:08:46.097Z,98186.00
2023-01-29T23:12:47.007Z,98200.00
2023-01-29T23:16:48.182Z,98216.00
2023-01-29T23:20:52.898Z,98215.00
2023-01-29T23:24:53.991Z,98208.00
2023-01-29T23:28:55.286Z,98223.00
2023-01-29T23:32:56.240Z,98214.00
2023-01-29T23:36:57.326Z,98216.00
2023-01-29T23:40:59.144Z,98202.00
2023-01-29T23:45:00.120Z,98202.00
2023-01-29T23:49:01.447Z,98191.00
2023-01-29T23:53:02.573Z,98193.00
2023-01-29T23:57:03.749Z,98168.00
